Time,TemperatureF,DewpointF,PressureIn,WindDirection,WindDirectionDegrees,WindSpeedMPH,WindSpeedGustMPH,Humidity,HourlyPrecipIn,Conditions,Clouds,dailyrainin,SoftwareType,DateUTC
2013-12-06 00:00:00,48.7,41.5,29.89,ESE,120,1.0,1.0,76,0.00,,---,0.00,VWS V14.01,2013-12-06 05:00:00,
2013-12-06 00:01:00,48.7,41.5,29.89,SE,125,2.0,2.0,76,0.00,,---,0.00,VWS V14.01,2013-12-06 05:01:00,
2013-12-06 00:06:00,48.6,41.4,29.88,North,11,1.0,3.0,76,0.00,,---,0.00,VWS V14.01,2013-12-06 05:06:00,
2013-12-06 00:11:00,48.9,41.0,29.87,NE,44,2.0,2.0,74,0.00,,---,0.00,VWS V14.01,2013-12-06 05:11:00,
2013-12-06 00:16:00,48.7,40.8,29.89,NW,316,2.0,2.0,74,0.00,,---,0.00,VWS V14.01,2013-12-06 05:16:00,
2013-12-06 00:21:00,48.1,40.9,29.88,WSW,253,3.0,3.0,76,0.00,,---,0.00,VWS V14.01,2013-12-06 05:21:00,
2013-12-06 00:26:00,48.5,40.2,29.88,West,281,0.0,0.0,73,0.00,,---,0.00,VWS V14.01,2013-12-06 05:26:00,
2013-12-06 00:31:00,48.6,40.3,29.89,WNW,302,2.0,3.0,73,0.00,,---,0.00,VWS V14.01,2013-12-06 05:31:00,
2013-12-06 00:36:00,48.6,40.0,29.89,West,260,8.0,8.0,72,0.00,,---,0.00,VWS V14.01,2013-12-06 05:36:00,
2013-12-06 00:41:00,48.6,40.0,29.89,ESE,105,1.0,1.0,72,0.00,,---,0.00,VWS V14.01,2013-12-06 05:41:00,
2013-12-06 00:46:00,48.7,40.1,29.88,ESE,120,2.0,2.0,72,0.00,,---,0.00,VWS V14.01,2013-12-06 05:46:00,
2013-12-06 00:51:00,48.6,39.6,29.88,SSE,155,5.0,5.0,71,0.00,,---,0.00,VWS V14.01,2013-12-06 05:51:00,
2013-12-06 00:56:00,48.4,39.4,29.88,SSE,159,0.0,0.0,71,0.00,,---,0.00,VWS V14.01,2013-12-06 05:56:00,
2013-12-06 01:12:00,48.0,38.7,29.87,WSW,246,0.0,1.0,70,0.00,,---,0.00,VWS V14.01,2013-12-06 06:12:00,
2013-12-06 01:17:00,47.6,38.7,29.88,SE,135,2.0,3.0,71,0.00,,---,0.00,VWS V14.01,2013-12-06 06:17:00,
2013-12-06 01:22:00,47.6,36.8,29.87,ESE,122,5.0,5.0,66,0.00,,---,0.00,VWS V14.01,2013-12-06 06:22:00,
2013-12-06 01:27:00,47.3,37.3,29.87,SE,146,7.0,9.0,68,0.00,,---,0.00,VWS V14.01,2013-12-06 06:27:00,
2013-12-06 01:32:00,47.1,37.5,29.88,SW,227,3.0,3.0,69,0.00,,---,0.00,VWS V14.01,2013-12-06 06:32:00,
2013-12-06 01:37:00,47.1,37.5,29.88,SSE,148,0.0,1.0,69,0.00,,---,0.00,VWS V14.01,2013-12-06 06:37:00,
2013-12-06 01:42:00,47.0,36.6,29.87,West,259,6.0,6.0,67,0.00,,---,0.00,VWS V14.01,2013-12-06 06:42:00,
2013-12-06 01:47:00,46.9,37.3,29.88,NW,309,0.0,1.0,69,0.00,,---,0.00,VWS V14.01,2013-12-06 06:47:00,
2013-12-06 01:52:00,46.5,36.2,29.89,SW,235,6.0,8.0,67,0.00,,---,0.00,VWS V14.01,2013-12-06 06:52:00,
2013-12-06 01:57:00,46.7,36.0,29.89,East,99,4.0,7.0,66,0.00,,---,0.00,VWS V14.01,2013-12-06 06:57:00,
2013-12-06 02:02:00,46.7,36.3,29.88,WNW,284,5.0,13.0,67,0.00,,---,0.00,VWS V14.01,2013-12-06 07:02:00,
2013-12-06 02:07:00,46.6,36.6,29.88,ESE,102,3.0,4.0,68,0.00,,---,0.00,VWS V14.01,2013-12-06 07:07:00,
2013-12-06 02:12:00,46.2,35.9,29.88,SW,219,9.0,17.0,67,0.00,,---,0.00,VWS V14.01,2013-12-06 07:12:00,
2013-12-06 02:16:00,46.3,36.0,29.90,SE,134,7.0,11.0,67,0.00,,---,0.00,VWS V14.01,2013-12-06 07:16:00,
2013-12-06 02:21:00,45.7,36.1,29.90,South,176,4.0,8.0,69,0.00,,---,0.00,VWS V14.01,2013-12-06 07:21:00,
2013-12-06 02:26:00,45.4,36.6,29.90,WSW,245,1.0,3.0,71,0.00,,---,0.00,VWS V14.01,2013-12-06 07:26:00,
2013-12-06 02:31:00,45.0,36.5,29.90,East,84,5.0,6.0,72,0.00,,---,0.00,VWS V14.01,2013-12-06 07:31:00,
2013-12-06 02:36:00,44.5,36.0,29.90,ESE,105,3.0,3.0,72,0.00,,---,0.00,VWS V14.01,2013-12-06 07:36:00,
2013-12-06 02:41:00,44.1,36.4,29.92,ESE,122,5.0,5.0,74,0.00,,---,0.00,VWS V14.01,2013-12-06 07:41:00,
2013-12-06 02:46:00,43.5,36.1,29.91,SE,129,3.0,3.0,75,0.00,,---,0.00,VWS V14.01,2013-12-06 07:46:00,
2013-12-06 02:51:00,42.9,36.8,29.90,SE,131,0.0,0.0,79,0.00,,---,0.00,VWS V14.01,2013-12-06 07:51:00,
2013-12-06 02:57:00,42.2,36.8,29.90,ESE,120,4.0,5.0,81,0.00,,---,0.00,VWS V14.01,2013-12-06 07:57:00,
2013-12-06 03:02:00,41.7,36.6,29.91,NW,321,0.0,2.0,82,0.01,,---,0.01,VWS V14.01,2013-12-06 08:02:00,
2013-12-06 03:07:00,41.2,36.4,29.92,SE,136,1.0,5.0,83,0.01,,---,0.01,VWS V14.01,2013-12-06 08:07:00,
2013-12-06 03:12:00,40.8,36.3,29.91,SW,234,4.0,6.0,84,0.01,,---,0.01,VWS V14.01,2013-12-06 08:12:00,
2013-12-06 03:17:00,40.6,35.8,29.91,NNE,27,1.0,3.0,83,0.01,,---,0.01,VWS V14.01,2013-12-06 08:17:00,
2013-12-06 03:22:00,40.6,35.8,29.93,WSW,238,3.0,6.0,83,0.02,,---,0.02,VWS V14.01,2013-12-06 08:22:00,
2013-12-06 03:27:00,40.0,35.3,29.93,SSE,148,1.0,3.0,83,0.02,,---,0.02,VWS V14.01,2013-12-06 08:27:00,
2013-12-06 03:32:00,39.6,34.9,29.94,SW,220,6.0,7.0,83,0.03,,---,0.03,VWS V14.01,2013-12-06 08:32:00,
2013-12-06 03:37:00,39.5,35.1,29.94,West,281,1.0,4.0,84,0.04,,---,0.04,VWS V14.01,2013-12-06 08:37:00,
2013-12-06 03:42:00,39.0,34.9,29.92,SW,226,3.0,3.0,85,0.04,,---,0.04,VWS V14.01,2013-12-06 08:42:00,
2013-12-06 03:47:00,38.7,34.9,29.92,SSE,148,3.0,3.0,86,0.05,,---,0.05,VWS V14.01,2013-12-06 08:47:00,
2013-12-06 03:52:00,38.4,34.6,29.92,South,179,4.0,12.0,86,0.06,,---,0.06,VWS V14.01,2013-12-06 08:52:00,
2013-12-06 03:57:00,38.1,34.6,29.92,SE,138,4.0,7.0,87,0.07,,---,0.07,VWS V14.01,2013-12-06 08:57:00,
2013-12-06 04:02:00,38.3,34.2,29.93,South,171,4.0,8.0,85,0.06,,---,0.07,VWS V14.01,2013-12-06 09:02:00,
2013-12-06 04:07:00,38.3,34.2,29.93,SW,219,7.0,7.0,85,0.07,,---,0.08,VWS V14.01,2013-12-06 09:07:00,
2013-12-06 04:12:00,38.3,34.2,29.92,SW,216,3.0,3.0,85,0.08,,---,0.09,VWS V14.01,2013-12-06 09:12:00,
2013-12-06 04:17:00,37.9,34.4,29.92,NNW,342,5.0,8.0,87,0.09,,---,0.10,VWS V14.01,2013-12-06 09:17:00,
2013-12-06 04:22:00,38.0,34.2,29.92,West,281,1.0,3.0,86,0.09,,---,0.11,VWS V14.01,2013-12-06 09:22:00,
2013-12-06 04:27:00,37.8,34.9,29.93,NW,314,0.0,2.0,89,0.09,,---,0.11,VWS V14.01,2013-12-06 09:27:00,
2013-12-06 04:32:00,37.4,34.7,29.93,NW,325,2.0,2.0,90,0.09,,---,0.12,VWS V14.01,2013-12-06 09:32:00,
2013-12-06 04:37:00,37.0,34.9,29.95,West,271,1.0,2.0,92,0.10,,---,0.13,VWS V14.01,2013-12-06 09:37:00,
2013-12-06 04:42:00,36.8,35.0,29.95,West,278,0.0,0.0,93,0.10,,---,0.14,VWS V14.01,2013-12-06 09:42:00,
2013-12-06 04:47:00,36.6,34.8,29.95,West,281,1.0,1.0,93,0.10,,---,0.15,VWS V14.01,2013-12-06 09:47:00,
2013-12-06 04:51:00,36.4,34.6,29.96,NE,50,1.0,2.0,93,0.10,,---,0.16,VWS V14.01,2013-12-06 09:51:00,
2013-12-06 04:56:00,36.5,34.7,29.96,ESE,123,4.0,5.0,93,0.09,,---,0.16,VWS V14.01,2013-12-06 09:56:00,
2013-12-06 05:01:00,36.2,34.1,29.96,SE,134,2.0,2.0,92,0.10,,---,0.17,VWS V14.01,2013-12-06 10:01:00,
2013-12-06 05:06:00,35.8,33.7,29.96,ENE,71,0.0,0.0,92,0.09,,---,0.17,VWS V14.01,2013-12-06 10:06:00,
2013-12-06 05:11:00,35.6,33.8,29.97,NNW,330,1.0,1.0,93,0.08,,---,0.17,VWS V14.01,2013-12-06 10:11:00,
2013-12-06 05:16:00,35.0,33.2,29.97,WSW,243,1.0,2.0,93,0.07,,---,0.17,VWS V14.01,2013-12-06 10:16:00,
2013-12-06 05:21:00,34.7,33.2,29.96,ENE,64,2.0,3.0,94,0.06,,---,0.17,VWS V14.01,2013-12-06 10:21:00,
2013-12-06 05:26:00,34.5,33.0,29.97,WNW,294,0.0,0.0,94,0.06,,---,0.17,VWS V14.01,2013-12-06 10:26:00,
2013-12-06 05:31:00,34.7,32.9,29.95,SW,216,0.0,0.0,93,0.05,,---,0.17,VWS V14.01,2013-12-06 10:31:00,
2013-12-06 05:36:00,34.3,32.5,29.94,SW,224,1.0,1.0,93,0.04,,---,0.17,VWS V14.01,2013-12-06 10:36:00,
2013-12-06 05:41:00,34.0,32.2,29.95,NNE,16,1.0,2.0,93,0.03,,---,0.17,VWS V14.01,2013-12-06 10:41:00,
2013-12-06 05:46:00,33.8,32.3,29.94,SE,131,1.0,1.0,94,0.03,,---,0.18,VWS V14.01,2013-12-06 10:46:00,
2013-12-06 05:51:00,33.5,32.0,29.97,WNW,300,1.0,1.0,94,0.02,,---,0.18,VWS V14.01,2013-12-06 10:51:00,
2013-12-06 05:56:00,33.3,31.8,29.96,NNW,333,0.0,0.0,94,0.02,,---,0.18,VWS V14.01,2013-12-06 10:56:00,
2013-12-06 06:02:00,33.3,31.8,29.98,West,277,0.0,0.0,94,0.01,,---,0.18,VWS V14.01,2013-12-06 11:02:00,
2013-12-06 06:07:00,33.4,32.1,29.97,NNW,335,0.0,1.0,95,0.01,,---,0.18,VWS V14.01,2013-12-06 11:07:00,
2013-12-06 06:12:00,33.3,32.0,29.95,East,101,1.0,1.0,95,0.01,,---,0.18,VWS V14.01,2013-12-06 11:12:00,
2013-12-06 06:17:00,33.3,32.0,29.95,ESE,103,1.0,1.0,95,0.01,,---,0.18,VWS V14.01,2013-12-06 11:17:00,
2013-12-06 06:22:00,33.4,32.1,29.94,ESE,102,0.0,0.0,95,0.01,,---,0.18,VWS V14.01,2013-12-06 11:22:00,
2013-12-06 06:27:00,33.3,32.0,29.96,ESE,102,0.0,1.0,95,0.01,,---,0.18,VWS V14.01,2013-12-06 11:27:00,
2013-12-06 06:32:00,33.2,31.9,29.97,ESE,102,0.0,0.0,95,0.01,,---,0.18,VWS V14.01,2013-12-06 11:32:00,
2013-12-06 06:37:00,33.1,31.8,29.95,ESE,102,0.0,0.0,95,0.01,,---,0.18,VWS V14.01,2013-12-06 11:37:00,
2013-12-06 06:42:00,33.1,31.8,29.95,East,101,0.0,0.0,95,0.01,,---,0.18,VWS V14.01,2013-12-06 11:42:00,
2013-12-06 06:47:00,33.0,31.7,29.93,SW,222,2.0,2.0,95,0.00,,---,0.18,VWS V14.01,2013-12-06 11:47:00,
2013-12-06 06:52:00,33.0,31.7,29.96,NW,316,0.0,1.0,95,0.00,,---,0.18,VWS V14.01,2013-12-06 11:52:00,
2013-12-06 06:57:00,33.0,31.7,29.98,NNW,348,1.0,1.0,95,0.00,,---,0.18,VWS V14.01,2013-12-06 11:57:00,
2013-12-06 07:02:00,33.1,31.8,29.98,ENE,64,1.0,3.0,95,0.00,,---,0.18,VWS V14.01,2013-12-06 12:02:00,
2013-12-06 07:07:00,33.1,31.8,29.99,NNW,327,0.0,0.0,95,0.00,,---,0.18,VWS V14.01,2013-12-06 12:07:00,
2013-12-06 07:12:00,33.2,31.9,29.97,NNE,30,1.0,1.0,95,0.00,,---,0.18,VWS V14.01,2013-12-06 12:12:00,
2013-12-06 07:17:00,33.2,31.9,29.99,West,281,0.0,0.0,95,0.00,,---,0.18,VWS V14.01,2013-12-06 12:17:00,
2013-12-06 07:22:00,33.2,31.9,29.99,West,281,0.0,0.0,95,0.00,,---,0.18,VWS V14.01,2013-12-06 12:22:00,
2013-12-06 07:27:00,33.2,31.9,29.98,WNW,302,1.0,2.0,95,0.01,,---,0.19,VWS V14.01,2013-12-06 12:27:00,
2013-12-06 07:31:00,33.1,31.8,30.00,West,277,0.0,1.0,95,0.01,,---,0.19,VWS V14.01,2013-12-06 12:31:00,
2013-12-06 07:36:00,33.1,31.8,30.00,WNW,294,2.0,2.0,95,0.01,,---,0.19,VWS V14.01,2013-12-06 12:36:00,
2013-12-06 07:41:00,33.0,31.7,30.00,SE,144,0.0,3.0,95,0.01,,---,0.19,VWS V14.01,2013-12-06 12:41:00,
2013-12-06 07:46:00,33.1,31.8,29.99,ESE,106,3.0,3.0,95,0.01,,---,0.19,VWS V14.01,2013-12-06 12:46:00,
2013-12-06 07:51:00,33.3,32.0,30.00,SSE,151,2.0,3.0,95,0.01,,---,0.19,VWS V14.01,2013-12-06 12:51:00,
2013-12-06 07:56:00,33.5,32.2,30.01,SE,131,2.0,2.0,95,0.01,,---,0.19,VWS V14.01,2013-12-06 12:56:00,
2013-12-06 08:01:00,33.6,32.3,30.00,West,276,2.0,2.0,95,0.01,,---,0.19,VWS V14.01,2013-12-06 13:01:00,
2013-12-06 08:06:00,33.7,32.2,30.00,WNW,294,1.0,1.0,94,0.01,,---,0.19,VWS V14.01,2013-12-06 13:06:00,
2013-12-06 08:11:00,33.7,32.2,30.00,SE,131,1.0,1.0,94,0.01,,---,0.19,VWS V14.01,2013-12-06 13:11:00,
2013-12-06 08:16:00,33.6,32.1,30.00,WSW,238,1.0,2.0,94,0.01,,---,0.19,VWS V14.01,2013-12-06 13:16:00,
2013-12-06 08:21:00,33.5,32.0,30.00,North,10,0.0,0.0,94,0.01,,---,0.19,VWS V14.01,2013-12-06 13:21:00,
2013-12-06 08:26:00,33.5,32.2,30.00,North,10,0.0,0.0,95,0.01,,---,0.19,VWS V14.01,2013-12-06 13:26:00,
2013-12-06 08:31:00,33.5,32.2,30.00,ESE,121,0.0,0.0,95,0.00,,---,0.19,VWS V14.01,2013-12-06 13:31:00,
2013-12-06 08:36:00,33.5,32.2,30.01,West,273,1.0,1.0,95,0.00,,---,0.19,VWS V14.01,2013-12-06 13:36:00,
2013-12-06 08:41:00,33.5,32.2,30.00,SSE,148,2.0,3.0,95,0.00,,---,0.19,VWS V14.01,2013-12-06 13:41:00,
2013-12-06 08:46:00,33.6,32.3,30.01,WSW,238,0.0,0.0,95,0.00,,---,0.19,VWS V14.01,2013-12-06 13:46:00,
2013-12-06 08:51:00,33.6,32.3,30.01,WSW,243,1.0,1.0,95,0.00,,---,0.19,VWS V14.01,2013-12-06 13:51:00,
2013-12-06 08:56:00,33.6,32.3,30.02,WSW,243,0.0,0.0,95,0.01,,---,0.20,VWS V14.01,2013-12-06 13:56:00,
2013-12-06 09:02:00,33.7,32.4,30.02,WSW,243,1.0,1.0,95,0.01,,---,0.20,VWS V14.01,2013-12-06 14:02:00,
2013-12-06 09:07:00,33.8,32.5,30.02,SE,129,3.0,3.0,95,0.01,,---,0.20,VWS V14.01,2013-12-06 14:07:00,
2013-12-06 09:12:00,33.7,32.4,30.01,SW,215,1.0,1.0,95,0.01,,---,0.20,VWS V14.01,2013-12-06 14:12:00,
2013-12-06 09:17:00,33.8,32.5,30.01,SW,215,0.0,1.0,95,0.01,,---,0.20,VWS V14.01,2013-12-06 14:17:00,
2013-12-06 09:22:00,33.9,32.6,30.01,West,271,0.0,0.0,95,0.01,,---,0.20,VWS V14.01,2013-12-06 14:22:00,
2013-12-06 09:27:00,34.0,32.7,30.01,West,276,0.0,0.0,95,0.01,,---,0.20,VWS V14.01,2013-12-06 14:27:00,
2013-12-06 09:32:00,34.1,32.8,30.00,West,277,0.0,0.0,95,0.01,,---,0.20,VWS V14.01,2013-12-06 14:32:00,
2013-12-06 09:37:00,34.2,32.9,30.00,WSW,246,0.0,0.0,95,0.01,,---,0.20,VWS V14.01,2013-12-06 14:37:00,
2013-12-06 09:42:00,34.1,32.8,30.02,East,86,0.0,0.0,95,0.01,,---,0.20,VWS V14.01,2013-12-06 14:42:00,
2013-12-06 09:47:00,34.2,32.9,30.02,East,86,0.0,0.0,95,0.01,,---,0.20,VWS V14.01,2013-12-06 14:47:00,
2013-12-06 09:52:00,34.4,33.1,30.02,East,84,1.0,1.0,95,0.02,,---,0.21,VWS V14.01,2013-12-06 14:52:00,
2013-12-06 09:57:00,34.3,33.0,30.02,East,85,1.0,1.0,95,0.01,,---,0.21,VWS V14.01,2013-12-06 14:57:00,
2013-12-06 10:01:00,34.2,32.9,30.02,East,82,1.0,2.0,95,0.01,,---,0.21,VWS V14.01,2013-12-06 15:01:00,
2013-12-06 10:06:00,34.3,33.0,30.03,ENE,63,2.0,3.0,95,0.01,,---,0.21,VWS V14.01,2013-12-06 15:06:00,
2013-12-06 10:11:00,34.2,32.9,30.02,NNW,327,2.0,3.0,95,0.01,,---,0.21,VWS V14.01,2013-12-06 15:11:00,
2013-12-06 10:16:00,34.9,30.9,30.01,NW,305,3.0,3.0,85,0.01,,---,0.21,VWS V14.01,2013-12-06 15:16:00,
2013-12-06 10:21:00,35.2,31.1,30.02,NW,322,1.0,2.0,85,0.01,,---,0.21,VWS V14.01,2013-12-06 15:21:00,
2013-12-06 10:26:00,35.1,31.6,30.01,West,262,1.0,4.0,87,0.01,,---,0.21,VWS V14.01,2013-12-06 15:26:00,
2013-12-06 10:31:00,35.6,31.2,30.01,NE,56,0.0,1.0,84,0.01,,---,0.21,VWS V14.01,2013-12-06 15:31:00,
2013-12-06 10:36:00,35.6,32.4,30.01,NE,53,1.0,1.0,88,0.01,,---,0.21,VWS V14.01,2013-12-06 15:36:00,
2013-12-06 10:41:00,35.6,29.7,30.01,NNW,335,1.0,3.0,79,0.02,,---,0.22,VWS V14.01,2013-12-06 15:41:00,
2013-12-06 10:46:00,36.2,29.4,30.01,WNW,295,4.0,5.0,76,0.02,,---,0.22,VWS V14.01,2013-12-06 15:46:00,
2013-12-06 10:51:00,36.1,31.1,30.01,West,278,1.0,1.0,82,0.01,,---,0.22,VWS V14.01,2013-12-06 15:51:00,
2013-12-06 10:56:00,35.8,31.5,30.01,ENE,67,2.0,3.0,84,0.01,,---,0.22,VWS V14.01,2013-12-06 15:56:00,
2013-12-06 11:01:00,36.5,28.7,30.01,NNW,327,1.0,2.0,73,0.01,,---,0.22,VWS V14.01,2013-12-06 16:01:00,
2013-12-06 11:06:00,36.1,32.6,30.01,SE,125,3.0,3.0,87,0.01,,---,0.22,VWS V14.01,2013-12-06 16:06:00,
2013-12-06 11:11:00,36.1,29.3,30.01,SSW,200,1.0,1.0,76,0.01,,---,0.22,VWS V14.01,2013-12-06 16:11:00,
2013-12-06 11:16:00,36.7,28.9,30.01,ESE,104,3.0,3.0,73,0.02,,---,0.23,VWS V14.01,2013-12-06 16:16:00,
2013-12-06 11:21:00,36.8,29.0,30.02,SSE,154,2.0,3.0,73,0.02,,---,0.23,VWS V14.01,2013-12-06 16:21:00,
2013-12-06 11:26:00,36.9,28.0,30.03,WSW,245,0.0,0.0,70,0.02,,---,0.23,VWS V14.01,2013-12-06 16:26:00,
2013-12-06 11:31:00,37.0,29.2,30.03,SE,141,1.0,1.0,73,0.02,,---,0.23,VWS V14.01,2013-12-06 16:31:00,
2013-12-06 11:36:00,37.0,29.8,30.03,SE,134,1.0,1.0,75,0.02,,---,0.23,VWS V14.01,2013-12-06 16:36:00,
2013-12-06 11:41:00,37.2,30.0,30.03,SW,235,8.0,8.0,75,0.01,,---,0.23,VWS V14.01,2013-12-06 16:41:00,
2013-12-06 11:46:00,37.1,27.9,30.03,ENE,75,5.0,6.0,69,0.01,,---,0.23,VWS V14.01,2013-12-06 16:46:00,
2013-12-06 11:51:00,37.1,27.5,30.03,ENE,67,3.0,3.0,68,0.01,,---,0.23,VWS V14.01,2013-12-06 16:51:00,
2013-12-06 11:56:00,37.1,28.2,30.04,NE,44,1.0,4.0,70,0.02,,---,0.24,VWS V14.01,2013-12-06 16:56:00,
2013-12-06 12:01:00,37.0,28.5,30.03,SSW,210,2.0,2.0,71,0.02,,---,0.24,VWS V14.01,2013-12-06 17:01:00,
2013-12-06 12:06:00,37.2,29.0,30.04,SW,229,2.0,2.0,72,0.02,,---,0.24,VWS V14.01,2013-12-06 17:06:00,
2013-12-06 12:11:00,37.1,27.5,30.03,WNW,290,1.0,7.0,68,0.02,,---,0.24,VWS V14.01,2013-12-06 17:11:00,
2013-12-06 12:16:00,37.1,28.2,30.03,SE,135,7.0,13.0,70,0.02,,---,0.24,VWS V14.01,2013-12-06 17:16:00,
2013-12-06 12:21:00,37.2,28.0,30.03,SW,235,1.0,4.0,69,0.01,,---,0.24,VWS V14.01,2013-12-06 17:21:00,
2013-12-06 12:26:00,37.6,28.0,30.03,SE,142,6.0,9.0,68,0.01,,---,0.24,VWS V14.01,2013-12-06 17:26:00,
2013-12-06 12:31:00,37.7,28.1,30.04,West,266,3.0,5.0,68,0.01,,---,0.24,VWS V14.01,2013-12-06 17:31:00,
2013-12-06 12:36:00,37.5,27.2,30.03,SSW,207,4.0,10.0,66,0.01,,---,0.24,VWS V14.01,2013-12-06 17:36:00,
2013-12-06 12:41:00,37.3,27.4,30.03,SE,138,3.0,4.0,67,0.01,,---,0.24,VWS V14.01,2013-12-06 17:41:00,
2013-12-06 12:46:00,37.1,27.5,30.02,SW,235,9.0,12.0,68,0.01,,---,0.24,VWS V14.01,2013-12-06 17:46:00,
2013-12-06 12:51:00,37.1,26.8,30.02,ESE,115,2.0,6.0,66,0.01,,---,0.24,VWS V14.01,2013-12-06 17:51:00,
2013-12-06 12:56:00,37.2,26.9,30.02,SW,222,4.0,4.0,66,0.00,,---,0.24,VWS V14.01,2013-12-06 17:56:00,
2013-12-06 13:01:00,37.2,25.8,30.02,NW,320,0.0,0.0,63,0.01,,---,0.25,VWS V14.01,2013-12-06 18:01:00,
2013-12-06 13:06:00,37.3,26.3,30.02,SE,134,4.0,8.0,64,0.01,,---,0.25,VWS V14.01,2013-12-06 18:06:00,
2013-12-06 13:11:00,37.2,26.5,30.03,ESE,104,2.0,4.0,65,0.01,,---,0.25,VWS V14.01,2013-12-06 18:11:00,
2013-12-06 13:16:00,37.2,25.8,30.03,West,259,3.0,5.0,63,0.01,,---,0.25,VWS V14.01,2013-12-06 18:16:00,
2013-12-06 13:21:00,37.1,26.1,30.02,SE,125,3.0,3.0,64,0.01,,---,0.25,VWS V14.01,2013-12-06 18:21:00,
2013-12-06 13:26:00,36.9,25.9,30.02,ESE,117,6.0,10.0,64,0.01,,---,0.25,VWS V14.01,2013-12-06 18:26:00,
2013-12-06 13:31:00,36.8,25.8,30.02,South,186,2.0,7.0,64,0.01,,---,0.25,VWS V14.01,2013-12-06 18:31:00,
2013-12-06 13:36:00,36.9,25.9,30.02,SSE,156,0.0,3.0,64,0.01,,---,0.25,VWS V14.01,2013-12-06 18:36:00,
2013-12-06 13:41:00,36.8,26.1,30.02,SE,138,4.0,7.0,65,0.01,,---,0.25,VWS V14.01,2013-12-06 18:41:00,
2013-12-06 13:46:00,36.7,26.1,30.03,SE,125,1.0,2.0,65,0.01,,---,0.25,VWS V14.01,2013-12-06 18:46:00,
2013-12-06 13:51:00,36.7,26.4,30.03,NE,55,1.0,2.0,66,0.01,,---,0.25,VWS V14.01,2013-12-06 18:51:00,
2013-12-06 13:56:00,36.8,26.1,30.03,ENE,61,3.0,3.0,65,0.01,,---,0.25,VWS V14.01,2013-12-06 18:56:00,
2013-12-06 14:01:00,36.8,27.2,30.03,East,80,1.0,3.0,68,0.00,,---,0.25,VWS V14.01,2013-12-06 19:01:00,
2013-12-06 14:06:00,37.1,27.5,30.02,SW,235,1.0,1.0,68,0.00,,---,0.25,VWS V14.01,2013-12-06 19:06:00,
2013-12-06 14:11:00,37.3,27.7,30.03,ENE,58,0.0,1.0,68,0.00,,---,0.25,VWS V14.01,2013-12-06 19:11:00,
2013-12-06 14:16:00,37.4,27.8,30.03,ESE,108,4.0,4.0,68,0.00,,---,0.25,VWS V14.01,2013-12-06 19:16:00,
2013-12-06 14:21:00,37.3,28.4,30.03,ENE,72,0.0,1.0,70,0.00,,---,0.25,VWS V14.01,2013-12-06 19:21:00,
2013-12-06 14:26:00,37.3,28.4,30.04,ESE,120,1.0,1.0,70,0.00,,---,0.25,VWS V14.01,2013-12-06 19:26:00,
2013-12-06 14:31:00,37.0,27.4,30.04,ESE,123,4.0,5.0,68,0.00,,---,0.25,VWS V14.01,2013-12-06 19:31:00,
2013-12-06 14:36:00,36.7,27.9,30.05,NNW,332,0.0,1.0,70,0.00,,---,0.25,VWS V14.01,2013-12-06 19:36:00,
2013-12-06 14:41:00,36.8,28.3,30.04,East,98,0.0,1.0,71,0.01,,---,0.26,VWS V14.01,2013-12-06 19:41:00,
2013-12-06 14:46:00,36.6,26.7,30.04,WSW,238,0.0,1.0,67,0.01,,---,0.26,VWS V14.01,2013-12-06 19:46:00,
2013-12-06 14:51:00,36.5,27.0,30.04,SE,135,1.0,1.0,68,0.01,,---,0.26,VWS V14.01,2013-12-06 19:51:00,
2013-12-06 14:56:00,36.3,27.1,30.04,SE,129,4.0,4.0,69,0.01,,---,0.26,VWS V14.01,2013-12-06 19:56:00,
2013-12-06 15:01:00,35.9,26.4,30.03,ESE,117,0.0,2.0,68,0.01,,---,0.26,VWS V14.01,2013-12-06 20:01:00,
2013-12-06 15:06:00,35.7,26.2,30.04,South,185,3.0,5.0,68,0.01,,---,0.26,VWS V14.01,2013-12-06 20:06:00,
2013-12-06 15:11:00,35.5,25.3,30.04,West,277,0.0,1.0,66,0.01,,---,0.26,VWS V14.01,2013-12-06 20:11:00,
2013-12-06 15:16:00,35.3,25.5,30.04,SE,146,1.0,1.0,67,0.01,,---,0.26,VWS V14.01,2013-12-06 20:16:00,
2013-12-06 15:21:00,35.2,26.1,30.04,East,89,2.0,2.0,69,0.01,,---,0.26,VWS V14.01,2013-12-06 20:21:00,
2013-12-06 15:26:00,35.0,26.2,30.04,SE,141,0.0,1.0,70,0.01,,---,0.26,VWS V14.01,2013-12-06 20:26:00,
2013-12-06 15:31:00,34.8,25.7,30.05,SE,124,0.0,0.0,69,0.01,,---,0.26,VWS V14.01,2013-12-06 20:31:00,
2013-12-06 15:36:00,34.7,25.9,30.04,SE,125,1.0,2.0,70,0.01,,---,0.26,VWS V14.01,2013-12-06 20:36:00,
2013-12-06 15:41:00,34.6,25.8,30.04,SSE,168,0.0,1.0,70,0.00,,---,0.26,VWS V14.01,2013-12-06 20:41:00,
2013-12-06 15:46:00,34.4,26.3,30.04,SSE,153,1.0,1.0,72,0.00,,---,0.26,VWS V14.01,2013-12-06 20:46:00,
2013-12-06 15:51:00,34.1,26.0,30.04,ESE,103,0.0,1.0,72,0.00,,---,0.26,VWS V14.01,2013-12-06 20:51:00,
2013-12-06 15:56:00,34.0,25.6,30.04,SE,126,0.0,1.0,71,0.00,,---,0.26,VWS V14.01,2013-12-06 20:56:00,
2013-12-06 16:01:00,34.0,25.6,30.04,East,96,1.0,1.0,71,0.00,,---,0.26,VWS V14.01,2013-12-06 21:01:00,
2013-12-06 16:05:00,34.0,25.9,30.04,ENE,72,0.0,0.0,72,0.00,,---,0.26,VWS V14.01,2013-12-06 21:05:00,
2013-12-06 16:10:00,33.8,25.7,30.05,ENE,77,0.0,0.0,72,0.00,,---,0.26,VWS V14.01,2013-12-06 21:10:00,
2013-12-06 16:15:00,33.7,25.6,30.06,SE,129,0.0,0.0,72,0.00,,---,0.26,VWS V14.01,2013-12-06 21:15:00,
2013-12-06 16:20:00,33.6,25.9,30.06,East,81,1.0,1.0,73,0.00,,---,0.26,VWS V14.01,2013-12-06 21:20:00,
2013-12-06 16:25:00,33.5,26.1,30.06,ESE,107,1.0,1.0,74,0.00,,---,0.26,VWS V14.01,2013-12-06 21:25:00,
2013-12-06 16:30:00,33.4,26.0,30.05,SE,141,1.0,1.0,74,0.00,,---,0.26,VWS V14.01,2013-12-06 21:30:00,
2013-12-06 16:35:00,33.2,26.1,30.06,ESE,114,0.0,0.0,75,0.00,,---,0.26,VWS V14.01,2013-12-06 21:35:00,
2013-12-06 16:40:00,33.0,26.6,30.06,SE,125,0.0,0.0,77,0.00,,---,0.26,VWS V14.01,2013-12-06 21:40:00,
2013-12-06 16:45:00,33.0,26.6,30.06,East,89,1.0,2.0,77,0.00,,---,0.26,VWS V14.01,2013-12-06 21:45:00,
2013-12-06 16:50:00,33.0,26.6,30.07,SE,138,0.0,0.0,77,0.00,,---,0.26,VWS V14.01,2013-12-06 21:50:00,
2013-12-06 16:55:00,32.7,27.2,30.07,SW,226,1.0,1.0,80,0.00,,---,0.26,VWS V14.01,2013-12-06 21:55:00,
2013-12-06 17:00:00,32.6,25.9,30.07,ESE,115,2.0,2.0,76,0.00,,---,0.26,VWS V14.01,2013-12-06 22:00:00,
2013-12-06 17:05:00,32.8,25.8,30.06,SSE,153,0.0,1.0,75,0.00,,---,0.26,VWS V14.01,2013-12-06 22:05:00,
2013-12-06 17:10:00,32.9,25.5,30.08,SE,139,0.0,1.0,74,0.00,,---,0.26,VWS V14.01,2013-12-06 22:10:00,
2013-12-06 17:15:00,32.9,25.5,30.08,WNW,296,0.0,1.0,74,0.00,,---,0.26,VWS V14.01,2013-12-06 22:15:00,
2013-12-06 17:20:00,32.9,25.5,30.08,West,281,0.0,0.0,74,0.00,,---,0.26,VWS V14.01,2013-12-06 22:20:00,
2013-12-06 17:25:00,32.8,26.1,30.08,NE,53,1.0,1.0,76,0.00,,---,0.26,VWS V14.01,2013-12-06 22:25:00,
2013-12-06 17:30:00,32.9,26.2,30.08,ENE,60,1.0,1.0,76,0.00,,---,0.26,VWS V14.01,2013-12-06 22:30:00,
2013-12-06 17:35:00,32.8,25.8,30.09,SE,128,2.0,2.0,75,0.00,,---,0.26,VWS V14.01,2013-12-06 22:35:00,
2013-12-06 17:40:00,32.8,26.1,30.09,ESE,107,2.0,2.0,76,0.00,,---,0.26,VWS V14.01,2013-12-06 22:40:00,
2013-12-06 17:45:00,32.7,26.0,30.09,SE,131,2.0,2.0,76,0.00,,---,0.26,VWS V14.01,2013-12-06 22:45:00,
2013-12-06 17:50:00,32.7,25.3,30.08,ESE,122,0.0,1.0,74,0.00,,---,0.26,VWS V14.01,2013-12-06 22:50:00,
2013-12-06 17:55:00,32.8,25.1,30.09,ENE,72,3.0,3.0,73,0.00,,---,0.26,VWS V14.01,2013-12-06 22:55:00,
2013-12-06 18:00:00,32.8,25.1,30.09,ESE,114,0.0,0.0,73,0.00,,---,0.26,VWS V14.01,2013-12-06 23:00:00,
2013-12-06 18:05:00,32.8,24.8,30.08,ENE,74,2.0,2.0,72,0.00,,---,0.26,VWS V14.01,2013-12-06 23:05:00,
2013-12-06 18:10:00,32.9,24.9,30.09,SE,125,0.0,0.0,72,0.00,,---,0.26,VWS V14.01,2013-12-06 23:10:00,
2013-12-06 18:15:00,32.8,24.8,30.09,SE,131,4.0,4.0,72,0.00,,---,0.26,VWS V14.01,2013-12-06 23:15:00,
2013-12-06 18:20:00,32.6,25.2,30.09,WSW,238,0.0,1.0,74,0.00,,---,0.26,VWS V14.01,2013-12-06 23:20:00,
2013-12-06 18:25:00,32.5,24.8,30.10,WSW,252,0.0,6.0,73,0.00,,---,0.26,VWS V14.01,2013-12-06 23:25:00,
2013-12-06 18:30:00,32.5,25.1,30.10,WSW,246,3.0,3.0,74,0.00,,---,0.26,VWS V14.01,2013-12-06 23:30:00,
2013-12-06 18:35:00,32.5,24.5,30.10,North,6,2.0,2.0,72,0.00,,---,0.26,VWS V14.01,2013-12-06 23:35:00,
2013-12-06 18:40:00,32.5,24.5,30.10,SE,144,2.0,5.0,72,0.00,,---,0.26,VWS V14.01,2013-12-06 23:40:00,
2013-12-06 18:45:00,32.4,24.4,30.10,South,183,1.0,2.0,72,0.00,,---,0.26,VWS V14.01,2013-12-06 23:45:00,
2013-12-06 18:50:00,32.4,24.4,30.11,WSW,240,5.0,6.0,72,0.00,,---,0.26,VWS V14.01,2013-12-06 23:50:00,
2013-12-06 18:55:00,32.5,23.8,30.10,WSW,243,0.0,4.0,70,0.00,,---,0.26,VWS V14.01,2013-12-06 23:55:00,
2013-12-06 19:00:00,32.5,24.2,30.10,NW,320,0.0,1.0,71,0.00,,---,0.26,VWS V14.01,2013-12-07 00:00:00,
2013-12-06 19:05:00,32.4,23.7,30.09,West,264,0.0,5.0,70,0.00,,---,0.26,VWS V14.01,2013-12-07 00:05:00,
2013-12-06 19:10:00,32.4,24.1,30.10,NW,324,2.0,4.0,71,0.00,,---,0.26,VWS V14.01,2013-12-07 00:10:00,
2013-12-06 19:15:00,32.4,23.7,30.10,WSW,238,3.0,4.0,70,0.00,,---,0.26,VWS V14.01,2013-12-07 00:15:00,
2013-12-06 19:20:00,32.4,23.7,30.11,WSW,256,3.0,5.0,70,0.00,,---,0.26,VWS V14.01,2013-12-07 00:20:00,
2013-12-06 19:25:00,32.4,24.1,30.11,SE,134,0.0,1.0,71,0.00,,---,0.26,VWS V14.01,2013-12-07 00:25:00,
2013-12-06 19:30:00,32.4,24.4,30.11,NNW,333,1.0,7.0,72,0.00,,---,0.26,VWS V14.01,2013-12-07 00:30:00,
2013-12-06 19:35:00,32.3,24.0,30.11,WSW,250,7.0,8.0,71,0.00,,---,0.26,VWS V14.01,2013-12-07 00:35:00,
2013-12-06 19:40:00,32.4,23.7,30.11,WSW,245,1.0,1.0,70,0.00,,---,0.26,VWS V14.01,2013-12-07 00:40:00,
2013-12-06 19:45:00,32.3,24.0,30.10,SW,235,4.0,5.0,71,0.00,,---,0.26,VWS V14.01,2013-12-07 00:45:00,
2013-12-06 19:50:00,32.3,24.0,30.10,West,263,1.0,2.0,71,0.00,,---,0.26,VWS V14.01,2013-12-07 00:50:00,
2013-12-06 19:55:00,32.3,24.0,30.11,WNW,285,4.0,6.0,71,0.00,,---,0.26,VWS V14.01,2013-12-07 00:55:00,
2013-12-06 20:00:00,32.3,24.0,30.12,SSW,210,2.0,3.0,71,0.00,,---,0.26,VWS V14.01,2013-12-07 01:00:00,
2013-12-06 20:05:00,32.3,24.0,30.12,WSW,256,0.0,1.0,71,0.00,,---,0.26,VWS V14.01,2013-12-07 01:05:00,
2013-12-06 20:10:00,32.3,23.6,30.11,West,260,2.0,4.0,70,0.00,,---,0.26,VWS V14.01,2013-12-07 01:10:00,
2013-12-06 20:15:00,32.3,23.6,30.11,West,276,5.0,6.0,70,0.00,,---,0.26,VWS V14.01,2013-12-07 01:15:00,
2013-12-06 20:20:00,32.3,23.3,30.13,West,276,2.0,2.0,69,0.00,,---,0.26,VWS V14.01,2013-12-07 01:20:00,
2013-12-06 20:25:00,32.3,23.3,30.13,WNW,291,1.0,2.0,69,0.00,,---,0.26,VWS V14.01,2013-12-07 01:25:00,
2013-12-06 20:30:00,32.3,23.3,30.13,NNW,333,2.0,4.0,69,0.00,,---,0.26,VWS V14.01,2013-12-07 01:30:00,
2013-12-06 20:35:00,32.3,23.6,30.13,WNW,282,2.0,5.0,70,0.00,,---,0.26,VWS V14.01,2013-12-07 01:35:00,
2013-12-06 20:40:00,32.3,23.6,30.12,NNW,333,0.0,2.0,70,0.00,,---,0.26,VWS V14.01,2013-12-07 01:40:00,
2013-12-06 20:45:00,32.2,23.5,30.12,WSW,243,2.0,2.0,70,0.00,,---,0.26,VWS V14.01,2013-12-07 01:45:00,
2013-12-06 20:50:00,32.2,23.5,30.12,ENE,58,1.0,3.0,70,0.00,,---,0.26,VWS V14.01,2013-12-07 01:50:00,
2013-12-06 20:55:00,32.3,23.3,30.12,WSW,256,1.0,4.0,69,0.00,,---,0.26,VWS V14.01,2013-12-07 01:55:00,
2013-12-06 21:00:00,32.3,23.6,30.12,WNW,291,1.0,4.0,70,0.00,,---,0.26,VWS V14.01,2013-12-07 02:00:00,
2013-12-06 21:05:00,32.3,24.0,30.12,South,188,0.0,2.0,71,0.00,,---,0.26,VWS V14.01,2013-12-07 02:05:00,
2013-12-06 21:10:00,32.2,24.2,30.13,WSW,252,0.0,1.0,72,0.00,,---,0.26,VWS V14.01,2013-12-07 02:10:00,
2013-12-06 21:15:00,32.1,24.1,30.13,ENE,58,2.0,2.0,72,0.00,,---,0.26,VWS V14.01,2013-12-07 02:15:00,
2013-12-06 21:20:00,32.1,23.8,30.12,West,281,2.0,2.0,71,0.00,,---,0.26,VWS V14.01,2013-12-07 02:20:00,
2013-12-06 21:25:00,32.1,23.8,30.13,North,6,2.0,2.0,71,0.00,,---,0.26,VWS V14.01,2013-12-07 02:25:00,
2013-12-06 21:30:00,32.0,23.7,30.12,NNW,342,1.0,2.0,71,0.00,,---,0.26,VWS V14.01,2013-12-07 02:30:00,
2013-12-06 21:35:00,32.0,23.7,30.12,South,179,0.0,1.0,71,0.00,,---,0.26,VWS V14.01,2013-12-07 02:35:00,
2013-12-06 21:40:00,32.0,24.0,30.12,ENE,72,0.0,0.0,72,0.00,,---,0.26,VWS V14.01,2013-12-07 02:40:00,
2013-12-06 21:45:00,32.0,24.0,30.12,NW,304,2.0,2.0,72,0.00,,---,0.26,VWS V14.01,2013-12-07 02:45:00,
2013-12-06 21:50:00,32.0,24.0,30.12,WNW,300,3.0,3.0,72,0.00,,---,0.26,VWS V14.01,2013-12-07 02:50:00,
2013-12-06 21:55:00,32.0,24.0,30.13,WNW,300,2.0,2.0,72,0.00,,---,0.26,VWS V14.01,2013-12-07 02:55:00,
2013-12-06 22:00:00,32.0,23.7,30.14,NNW,339,2.0,2.0,71,0.00,,---,0.26,VWS V14.01,2013-12-07 03:00:00,
2013-12-06 22:05:00,32.1,23.4,30.14,NE,46,1.0,1.0,70,0.00,,---,0.26,VWS V14.01,2013-12-07 03:05:00,
2013-12-06 22:10:00,32.1,24.1,30.14,SE,124,2.0,3.0,72,0.00,,---,0.26,VWS V14.01,2013-12-07 03:10:00,
2013-12-06 22:15:00,32.0,24.0,30.14,SW,222,2.0,2.0,72,0.00,,---,0.26,VWS V14.01,2013-12-07 03:15:00,
2013-12-06 22:20:00,32.0,23.7,30.14,SSW,212,0.0,0.0,71,0.00,,---,0.26,VWS V14.01,2013-12-07 03:20:00,
2013-12-06 22:25:00,32.0,23.7,30.14,West,266,1.0,1.0,71,0.00,,---,0.26,VWS V14.01,2013-12-07 03:25:00,
2013-12-06 22:30:00,31.7,23.7,30.15,NW,314,1.0,1.0,72,0.00,,---,0.26,VWS V14.01,2013-12-07 03:30:00,
2013-12-06 22:35:00,31.9,23.6,30.15,WSW,246,0.0,0.0,71,0.00,,---,0.26,VWS V14.01,2013-12-07 03:35:00,
2013-12-06 22:40:00,31.8,23.8,30.14,West,275,0.0,1.0,72,0.00,,---,0.26,VWS V14.01,2013-12-07 03:40:00,
2013-12-06 22:45:00,31.8,23.8,30.14,West,276,0.0,0.0,72,0.00,,---,0.26,VWS V14.01,2013-12-07 03:45:00,
2013-12-06 22:50:00,31.7,23.7,30.13,West,275,0.0,0.0,72,0.00,,---,0.26,VWS V14.01,2013-12-07 03:50:00,
2013-12-06 22:55:00,31.7,23.4,30.12,SE,136,0.0,0.0,71,0.00,,---,0.26,VWS V14.01,2013-12-07 03:55:00,
2013-12-06 23:00:00,31.5,24.2,30.13,ENE,63,2.0,2.0,74,0.00,,---,0.26,VWS V14.01,2013-12-07 04:00:00,
2013-12-06 23:05:00,31.4,23.4,30.14,SW,236,1.0,1.0,72,0.00,,---,0.26,VWS V14.01,2013-12-07 04:05:00,
2013-12-06 23:10:00,31.6,24.6,30.15,SW,226,0.0,0.0,75,0.00,,---,0.26,VWS V14.01,2013-12-07 04:10:00,
2013-12-06 23:15:00,31.5,24.2,30.15,SE,128,0.0,0.0,74,0.00,,---,0.26,VWS V14.01,2013-12-07 04:15:00,
2013-12-06 23:20:00,31.4,24.4,30.14,NW,319,0.0,1.0,75,0.00,,---,0.26,VWS V14.01,2013-12-07 04:20:00,
2013-12-06 23:25:00,31.3,23.7,30.13,West,266,0.0,1.0,73,0.00,,---,0.26,VWS V14.01,2013-12-07 04:25:00,
2013-12-06 23:30:00,31.5,23.5,30.14,WSW,244,0.0,1.0,72,0.00,,---,0.26,VWS V14.01,2013-12-07 04:30:00,
2013-12-06 23:35:00,31.5,23.5,30.14,ESE,120,4.0,4.0,72,0.00,,---,0.26,VWS V14.01,2013-12-07 04:35:00,
2013-12-06 23:40:00,31.5,23.5,30.14,West,280,1.0,2.0,72,0.00,,---,0.26,VWS V14.01,2013-12-07 04:40:00,
2013-12-06 23:45:00,31.5,23.5,30.13,SSW,199,0.0,1.0,72,0.00,,---,0.26,VWS V14.01,2013-12-07 04:45:00,
2013-12-06 23:50:00,31.5,23.5,30.12,NE,47,1.0,2.0,72,0.00,,---,0.26,VWS V14.01,2013-12-07 04:50:00,
2013-12-06 23:55:00,31.4,23.4,30.12,WNW,297,2.0,3.0,72,0.00,,---,0.26,VWS V14.01,2013-12-07 04:55:00,